Terminal Aerodrome Forecast
Issued by NWS Sterling, VA

Current Version | Previous Version | Text Only | Print | Product List | Glossary Off
Versions: 1 2 3 4 5 6 7 8 9 10 11 12 13 14 15 16

000
FTUS41 KLWX 200500
TAFMRB
TAF
KMRB 200532Z 2006/2106 15004KT 6SM BR OVC020
     FM200800 VRB03KT 2SM BR SCT008 OVC020
     FM201300 VRB03KT P6SM SCT008 BKN020
     FM201500 18006KT P6SM BKN050
     FM201700 18008KT P6SM SCT050
     FM210300 00000KT P6SM SCT250=

USA.gov is the U.S. government's official web portal to all federal, state and local government web resources and services.